Time;durP1;ratioP1;P1;durP2;ratioP2;P2;SDS_P1;SDS_P2;PMS_P1;PMS_P2;Temp;Humidity;BMP_temperature;BMP_pressure;BME280_temperature;BME280_humidity;BME280_pressure;Samples;Min_cycle;Max_cycle;Signal;HPM_P1;HPM_P2
2023/01/25 00:00:52;;;;;;;207.55;20.40;;;;;;;-0.96;100.00;94219.38;2556115;23;20059;-82
2023/01/25 00:01:53;;;;;;;155.45;18.42;;;;;;;-1.03;100.00;94219.84;2568296;23;20009;-82
2023/01/25 00:02:54;;;;;;;208.65;18.63;;;;;;;-0.85;100.00;94216.06;2568235;23;20013;-82
2023/01/25 00:03:57;;;;;;;256.13;19.77;;;;;;;-1.00;100.00;94210.59;2555780;23;20017;-82
2023/01/25 00:04:58;;;;;;;361.23;21.35;;;;;;;-0.91;100.00;94216.56;2556608;23;20020;-81
2023/01/25 00:06:00;;;;;;;329.17;23.50;;;;;;;-1.01;100.00;94215.03;2569263;23;20011;-81
2023/01/25 00:07:01;;;;;;;190.43;17.75;;;;;;;-0.86;100.00;94213.75;2571455;23;19997;-82
2023/01/25 00:08:02;;;;;;;304.20;20.58;;;;;;;-0.86;100.00;94213.75;2568261;23;20028;-80
2023/01/25 00:09:04;;;;;;;157.15;19.70;;;;;;;-0.93;100.00;94219.50;2556520;23;20055;-84
2023/01/25 00:10:05;;;;;;;214.73;19.65;;;;;;;-0.96;100.00;94217.50;2555474;23;19997;-82
2023/01/25 00:11:10;;;;;;;158.85;18.75;;;;;;;-0.97;100.00;94215.94;2568047;22;20031;-81
2023/01/25 00:12:11;;;;;;;216.88;20.10;;;;;;;-0.84;100.00;94214.97;2580551;23;20173;-83
2023/01/25 00:13:12;;;;;;;328.92;20.23;;;;;;;-0.90;100.00;94210.22;2556671;23;20027;-80
2023/01/25 00:14:14;;;;;;;258.45;19.90;;;;;;;-0.96;100.00;94217.50;2557370;23;20352;-81
2023/01/25 00:15:15;;;;;;;357.95;20.60;;;;;;;-1.00;100.00;94213.97;2546205;23;20005;-80
2023/01/25 00:16:16;;;;;;;179.75;18.83;;;;;;;-0.98;100.00;94203.91;2545030;23;20090;-81
2023/01/25 00:17:17;;;;;;;298.17;21.15;;;;;;;-0.89;100.00;94203.88;2556884;23;20004;-84
2023/01/25 00:18:21;;;;;;;295.08;20.33;;;;;;;-0.96;100.00;94207.00;2556959;23;20096;-83
2023/01/25 00:19:22;;;;;;;309.73;22.00;;;;;;;-0.94;100.00;94204.84;2544156;23;20013;-83
2023/01/25 00:20:24;;;;;;;259.10;21.38;;;;;;;-0.93;100.00;94205.59;2556357;23;20028;-82
2023/01/25 00:21:30;;;;;;;232.40;20.40;;;;;;;-0.96;100.00;94203.63;2556050;23;20459;-84
2023/01/25 00:22:31;;;;;;;299.15;19.90;;;;;;;-0.99;100.00;94209.50;2556618;23;20005;-84
2023/01/25 00:23:33;;;;;;;272.38;20.60;;;;;;;-1.06;100.00;94207.34;2555843;23;20005;-81
2023/01/25 00:24:37;;;;;;;289.23;21.30;;;;;;;-0.76;100.00;94205.50;2557115;23;20383;-82
2023/01/25 00:25:38;;;;;;;345.70;23.63;;;;;;;-0.84;100.00;94207.09;2556427;23;20405;-82
2023/01/25 00:26:42;;;;;;;352.15;21.85;;;;;;;-0.89;100.00;94206.50;2543452;23;20056;-82
2023/01/25 00:27:45;;;;;;;353.05;21.00;;;;;;;-0.92;100.00;94207.94;2561390;23;20001;-83
2023/01/25 00:28:50;;;;;;;149.90;16.85;;;;;;;-0.93;100.00;94202.97;2559474;23;20024;-83
2023/01/25 00:29:51;;;;;;;228.50;18.63;;;;;;;-0.95;100.00;94195.44;2546552;23;19997;-84
2023/01/25 00:30:57;;;;;;;252.80;18.58;;;;;;;-0.81;100.00;94205.69;2555295;23;20016;-80
2023/01/25 00:32:08;;;;;;;377.30;22.55;;;;;;;-0.99;100.00;94199.00;2558011;23;20012;-81
2023/01/25 00:33:14;;;;;;;299.58;21.40;;;;;;;-1.04;100.00;94195.47;2560203;23;20085;-83
2023/01/25 00:34:24;;;;;;;242.20;19.70;;;;;;;-1.03;100.00;94197.00;2557382;23;20031;-84
2023/01/25 00:35:31;;;;;;;166.18;18.27;;;;;;;-1.00;100.00;94197.47;2547934;23;20037;-82
2023/01/25 00:36:40;;;;;;;288.60;20.13;;;;;;;-0.85;100.00;94195.06;2546663;23;20156;-83
2023/01/25 00:37:50;;;;;;;312.02;20.50;;;;;;;-0.70;100.00;94195.59;2559623;23;20162;-82
2023/01/25 00:38:53;;;;;;;304.48;18.45;;;;;;;-0.86;100.00;94196.16;2570584;23;20423;-81
2023/01/25 00:39:54;;;;;;;284.17;18.95;;;;;;;-0.97;100.00;94192.34;2556708;23;20083;-83
2023/01/25 00:40:56;;;;;;;374.27;21.08;;;;;;;-0.99;100.00;94186.66;2555958;23;20573;-82
2023/01/25 00:41:57;;;;;;;308.25;20.67;;;;;;;-1.05;100.00;94199.19;2558145;23;20012;-80
2023/01/25 00:42:59;;;;;;;304.73;20.88;;;;;;;-0.99;100.00;94193.75;2568843;23;20004;-80
2023/01/25 00:44:02;;;;;;;221.60;17.00;;;;;;;-1.06;100.00;94202.09;2569839;23;20004;-82
2023/01/25 00:45:04;;;;;;;328.17;20.02;;;;;;;-0.92;100.00;94196.63;2569453;23;20008;-81
2023/01/25 00:46:05;;;;;;;290.58;20.27;;;;;;;-0.83;100.00;94195.53;2569684;23;20004;-80
2023/01/25 00:47:06;;;;;;;297.90;17.92;;;;;;;-0.91;100.00;94195.56;2556832;23;20032;-82
2023/01/25 00:48:08;;;;;;;310.10;19.42;;;;;;;-0.97;100.00;94189.72;2557433;23;20146;-83
2023/01/25 00:49:21;;;;;;;281.00;19.70;;;;;;;-1.00;100.00;94192.97;2569049;23;20040;-84
2023/01/25 00:50:25;;;;;;;169.88;16.60;;;;;;;-0.93;100.00;94187.22;2584522;22;20106;-82
2023/01/25 00:51:26;;;;;;;223.85;17.13;;;;;;;-0.96;100.00;94187.88;2580941;23;20008;-83
2023/01/25 00:52:29;;;;;;;296.02;19.33;;;;;;;-0.94;100.00;94185.69;2569916;23;20518;-82
2023/01/25 00:53:30;;;;;;;181.98;17.38;;;;;;;-0.96;100.00;94190.50;2556503;23;20447;-83
2023/01/25 00:54:31;;;;;;;281.63;19.83;;;;;;;-0.97;100.00;94188.94;2555883;23;19997;-81
2023/01/25 00:55:35;;;;;;;316.20;17.75;;;;;;;-1.06;100.00;94189.75;2558010;23;20019;-81
2023/01/25 00:56:36;;;;;;;369.63;23.13;;;;;;;-1.04;100.00;94182.34;2558591;23;20005;-80
2023/01/25 00:57:37;;;;;;;189.00;17.90;;;;;;;-1.07;100.00;94185.59;2556816;23;20012;-82
2023/01/25 00:58:41;;;;;;;323.88;20.38;;;;;;;-1.03;100.00;94190.97;2559017;23;20064;-80
2023/01/25 00:59:43;;;;;;;263.85;18.45;;;;;;;-1.10;100.00;94193.31;2573970;23;20415;-80
2023/01/25 01:00:44;;;;;;;295.10;20.10;;;;;;;-1.11;100.00;94194.41;2570030;23;20426;-82
2023/01/25 01:01:51;;;;;;;233.98;17.55;;;;;;;-1.03;100.00;94194.38;2545569;23;20631;-82
2023/01/25 01:02:52;;;;;;;282.25;21.92;;;;;;;-1.05;100.00;94196.56;2547693;23;20009;-83
2023/01/25 01:03:53;;;;;;;250.75;19.63;;;;;;;-1.10;100.00;94191.50;2557536;23;20005;-82
2023/01/25 01:04:55;;;;;;;247.77;18.58;;;;;;;-1.14;100.00;94195.81;2569774;23;20092;-80
2023/01/25 01:06:09;;;;;;;346.92;18.88;;;;;;;-0.97;100.00;94192.34;2560551;23;20016;-81
2023/01/25 01:07:13;;;;;;;374.60;20.00;;;;;;;-1.14;100.00;94190.56;2559446;23;20060;-83
2023/01/25 01:08:14;;;;;;;253.32;17.80;;;;;;;-1.10;100.00;94188.06;2545435;23;19998;-82
2023/01/25 01:09:17;;;;;;;130.00;17.73;;;;;;;-1.04;100.00;94199.94;2557563;23;20017;-81
2023/01/25 01:10:17;;;;;;;218.65;17.55;;;;;;;-1.07;100.00;94193.47;2533533;23;20033;-83
2023/01/25 01:11:18;;;;;;;113.63;15.95;;;;;;;-1.07;100.00;94198.72;2557261;22;20036;-83
2023/01/25 01:12:19;;;;;;;190.50;19.77;;;;;;;-1.08;100.00;94189.31;2569901;23;20331;-81
2023/01/25 01:13:22;;;;;;;288.30;19.73;;;;;;;-0.86;100.00;94182.25;2548947;23;20040;-79
2023/01/25 01:14:26;;;;;;;224.98;18.08;;;;;;;-0.99;100.00;94191.91;2560152;23;20007;-81
2023/01/25 01:15:30;;;;;;;150.60;16.83;;;;;;;-0.83;100.00;94192.13;2571371;23;20036;-82
2023/01/25 01:16:31;;;;;;;361.90;20.88;;;;;;;-0.98;100.00;94188.19;2570364;23;20008;-82
2023/01/25 01:17:32;;;;;;;341.80;20.10;;;;;;;-1.10;100.00;94190.69;2569450;23;20016;-81
2023/01/25 01:18:35;;;;;;;248.95;18.25;;;;;;;-0.89;100.00;94188.91;2545432;23;20700;-81
2023/01/25 01:19:36;;;;;;;197.43;18.63;;;;;;;-0.93;100.00;94185.38;2558296;23;20079;-81
2023/01/25 01:20:37;;;;;;;251.52;18.33;;;;;;;-0.99;100.00;94184.03;2581663;23;20027;-82
2023/01/25 01:21:41;;;;;;;149.32;17.63;;;;;;;-1.02;100.00;94180.16;2582376;23;20066;-83
2023/01/25 01:22:44;;;;;;;227.30;19.88;;;;;;;-1.10;100.00;94183.63;2559898;23;20005;-83
2023/01/25 01:23:45;;;;;;;249.25;20.50;;;;;;;-1.08;100.00;94184.06;2558488;23;20016;-81
2023/01/25 01:24:49;;;;;;;192.27;16.55;;;;;;;-0.99;100.00;94178.00;2569181;23;20091;-82
2023/01/25 01:25:50;;;;;;;168.70;17.75;;;;;;;-1.02;100.00;94174.16;2557316;23;20005;-84
2023/01/25 01:26:51;;;;;;;217.15;17.75;;;;;;;-1.04;100.00;94171.09;2545369;23;20002;-82
2023/01/25 01:27:52;;;;;;;288.70;20.95;;;;;;;-1.11;100.00;94170.81;2557307;23;20005;-82
2023/01/25 01:28:53;;;;;;;164.52;19.10;;;;;;;-1.11;100.00;94176.03;2544349;23;20005;-82
2023/01/25 01:29:54;;;;;;;236.70;20.10;;;;;;;-1.14;100.00;94176.66;2543953;23;20031;-82
2023/01/25 01:31:00;;;;;;;204.77;20.20;;;;;;;-1.14;100.00;94181.91;2544259;23;20005;-83
2023/01/25 01:32:01;;;;;;;291.38;18.95;;;;;;;-1.13;100.00;94172.97;2546773;23;20032;-82
2023/01/25 01:33:02;;;;;;;268.60;19.13;;;;;;;-1.12;100.00;94170.03;2544547;23;20010;-83
2023/01/25 01:34:03;;;;;;;270.85;20.80;;;;;;;-1.10;100.00;94169.72;2543929;23;20001;-82
2023/01/25 01:35:05;;;;;;;159.18;17.67;;;;;;;-1.08;100.00;94172.81;2568913;23;20000;-82
2023/01/25 01:36:07;;;;;;;335.10;19.98;;;;;;;-1.07;100.00;94171.72;2556872;23;20087;-82
2023/01/25 01:37:09;;;;;;;206.82;18.45;;;;;;;-1.04;100.00;94177.09;2556617;23;20009;-81
2023/01/25 01:38:09;;;;;;;174.35;18.33;;;;;;;-1.07;100.00;94175.09;2544438;23;20084;-81
2023/01/25 01:39:16;;;;;;;245.27;18.77;;;;;;;-1.12;100.00;94171.88;2555505;23;20009;-82
2023/01/25 01:40:17;;;;;;;218.30;18.90;;;;;;;-1.15;100.00;94169.88;2570166;23;20055;-82
2023/01/25 01:41:19;;;;;;;265.05;17.98;;;;;;;-0.95;100.00;94169.19;2556120;23;20061;-79
2023/01/25 01:42:20;;;;;;;108.53;16.77;;;;;;;-0.99;100.00;94170.13;2570215;22;20123;-82
2023/01/25 01:43:23;;;;;;;283.63;20.30;;;;;;;-1.02;100.00;94172.28;2581792;23;20037;-82
2023/01/25 01:44:59;;;;;;;336.35;20.13;;;;;;;-0.86;100.00;94162.03;2569535;23;20004;-82
2023/01/25 01:46:22;;;;;;;214.73;18.25;;;;;;;-0.89;100.00;94167.16;2531773;23;20045;-79
2023/01/25 01:47:52;;;;;;;165.43;17.67;;;;;;;-0.95;100.00;94157.94;2536867;23;20005;-83
2023/01/25 01:48:57;;;;;;;;;;;;;;;-0.95;100.00;94166.56;2554303;23;20004;-80
2023/01/25 01:50:03;;;;;;;205.25;18.30;;;;;;;-1.05;100.00;94172.94;2568516;23;19935;-83
2023/01/25 01:51:44;;;;;;;156.57;17.13;;;;;;;-1.08;100.00;94162.31;2545878;23;20005;-83
2023/01/25 01:52:46;;;;;;;181.95;19.25;;;;;;;-1.09;100.00;94164.16;2557760;23;20004;-81
2023/01/25 01:53:53;;;;;;;99.45;16.20;;;;;;;-1.03;100.00;94160.25;2554911;23;20459;-82
2023/01/25 01:55:14;;;;;;;111.10;17.45;;;;;;;-0.98;100.00;94159.31;2569070;23;20419;-83
2023/01/25 01:56:21;;;;;;;209.00;18.42;;;;;;;-1.03;100.00;94160.25;2572163;23;20019;-83
2023/01/25 01:57:56;;;;;;;102.78;17.00;;;;;;;-1.04;100.00;94168.47;2556198;23;20704;-81
2023/01/25 01:59:00;;;;;;;172.68;17.92;;;;;;;-1.04;100.00;94165.84;2561828;23;20462;-83
2023/01/25 02:00:24;;;;;;;274.23;19.33;;;;;;;-1.14;100.00;94163.56;2544363;23;20017;-83
2023/01/25 02:01:26;;;;;;;120.78;17.67;;;;;;;-1.09;100.00;94169.41;2552170;23;20055;-83
2023/01/25 02:02:27;;;;;;;178.73;18.42;;;;;;;-1.08;100.00;94170.94;2543417;23;20013;-82
2023/01/25 02:03:30;;;;;;;240.32;20.60;;;;;;;-1.12;100.00;94166.66;2554878;23;20001;-82
2023/01/25 02:04:32;;;;;;;149.98;17.88;;;;;;;-1.15;100.00;94164.66;2555603;23;20044;-82
2023/01/25 02:05:37;;;;;;;208.35;19.92;;;;;;;-1.13;100.00;94165.13;2556160;23;20008;-82
2023/01/25 02:06:44;;;;;;;144.63;17.30;;;;;;;-1.13;100.00;94163.25;2568340;23;20035;-80
2023/01/25 02:07:50;;;;;;;294.23;20.27;;;;;;;-1.11;100.00;94165.56;2569651;23;20347;-82
2023/01/25 02:08:53;;;;;;;261.13;19.23;;;;;;;-0.97;100.00;94170.56;2568901;23;20473;-81
2023/01/25 02:09:54;;;;;;;171.35;18.35;;;;;;;-1.00;100.00;94166.75;2555572;23;20001;-83
2023/01/25 02:10:55;;;;;;;119.22;17.70;;;;;;;-1.03;100.00;94157.66;2567355;23;20031;-83
2023/01/25 02:11:58;;;;;;;248.45;21.13;;;;;;;-1.07;100.00;94161.22;2567833;23;20529;-83
2023/01/25 02:13:00;;;;;;;133.60;18.13;;;;;;;-1.04;100.00;94168.47;2556781;23;20036;-83
2023/01/25 02:14:10;;;;;;;231.82;19.48;;;;;;;-1.10;100.00;94169.72;2555332;23;20001;-83
2023/01/25 02:15:36;;;;;;;191.00;20.40;;;;;;;-1.03;100.00;94164.75;2559033;23;20008;-81
2023/01/25 02:16:42;;;;;;;177.85;18.48;;;;;;;-0.90;100.00;94166.38;2572288;23;20434;-80
2023/01/25 02:17:43;;;;;;;202.70;19.90;;;;;;;-1.00;100.00;94163.34;2556294;23;20004;-82
2023/01/25 02:18:44;;;;;;;150.65;18.75;;;;;;;-0.93;100.00;94172.25;2555022;23;20092;-82
2023/01/25 02:20:20;;;;;;;242.90;20.67;;;;;;;-0.95;100.00;94163.94;2567470;23;20367;-84
2023/01/25 02:21:23;;;;;;;243.13;19.38;;;;;;;-0.84;100.00;94169.59;2570443;23;20377;-82
2023/01/25 02:22:37;;;;;;;168.00;19.02;;;;;;;-0.82;100.00;94167.44;2555618;23;20001;-82
2023/01/25 02:24:36;;;;;;;214.40;18.42;;;;;;;-0.88;100.00;94168.69;2560396;23;20013;-83
2023/01/25 02:25:38;;;;;;;252.75;22.17;;;;;;;-0.92;100.00;94165.16;2530287;23;20020;-82
2023/01/25 02:26:40;;;;;;;261.45;18.98;;;;;;;-0.88;100.00;94164.22;2532228;23;20057;-84
2023/01/25 02:27:47;;;;;;;286.20;21.13;;;;;;;-0.92;100.00;94163.31;2532066;23;20050;-83
2023/01/25 02:29:02;;;;;;;229.77;20.15;;;;;;;-0.95;100.00;94169.19;2522549;23;20080;-82
2023/01/25 02:30:04;;;;;;;260.17;18.15;;;;;;;-0.96;100.00;94172.91;2523151;23;20041;-82
2023/01/25 02:31:06;;;;;;;247.88;18.38;;;;;;;-0.97;100.00;94171.34;2519375;23;20026;-81
2023/01/25 02:32:07;;;;;;;222.88;18.23;;;;;;;-0.97;100.00;94165.31;2557220;23;20443;-82
2023/01/25 02:33:12;;;;;;;156.93;16.75;;;;;;;-0.91;100.00;94167.47;2556929;23;20016;-83
2023/01/25 02:34:13;;;;;;;208.20;17.73;;;;;;;-0.89;100.00;94167.16;2557684;23;20043;-83
2023/01/25 02:35:23;;;;;;;245.27;18.63;;;;;;;-0.93;100.00;94168.84;2556967;23;20016;-82
2023/01/25 02:36:29;;;;;;;266.60;19.35;;;;;;;-0.98;100.00;94166.41;2569879;23;20047;-82
2023/01/25 02:37:33;;;;;;;291.25;19.05;;;;;;;-1.02;100.00;94167.03;2557173;23;20335;-82
2023/01/25 02:38:45;;;;;;;278.75;19.70;;;;;;;-1.03;100.00;94162.88;2543883;23;20002;-83
2023/01/25 02:39:47;;;;;;;206.25;19.08;;;;;;;-0.84;100.00;94162.47;2548016;23;20005;-83
2023/01/25 02:40:57;;;;;;;112.13;16.73;;;;;;;-0.81;100.00;94161.09;2555468;23;20001;-81
2023/01/25 02:41:58;;;;;;;245.32;17.52;;;;;;;-0.89;100.00;94167.16;2549790;23;20048;-81
2023/01/25 02:42:59;;;;;;;191.50;17.60;;;;;;;-0.96;100.00;94161.66;2547746;23;20006;-80
2023/01/25 02:44:06;;;;;;;289.58;21.73;;;;;;;-1.03;100.00;94162.13;2568375;23;20005;-82
2023/01/25 02:45:13;;;;;;;175.48;17.60;;;;;;;-0.91;100.00;94159.59;2570084;23;20016;-82
2023/01/25 02:46:26;;;;;;;175.95;17.00;;;;;;;-1.01;100.00;94162.56;2569970;23;20473;-82
2023/01/25 02:47:27;;;;;;;280.83;19.20;;;;;;;-1.08;100.00;94160.44;2558194;23;20068;-83
2023/01/25 02:48:28;;;;;;;298.92;20.13;;;;;;;-1.16;100.00;94163.88;2568087;23;20023;-82
2023/01/25 02:49:29;;;;;;;421.08;23.38;;;;;;;-1.10;100.00;94160.00;2555913;23;20021;-82
2023/01/25 02:50:30;;;;;;;138.48;17.15;;;;;;;-1.04;100.00;94156.13;2544864;23;20001;-84
2023/01/25 02:51:34;;;;;;;205.85;17.52;;;;;;;-1.03;100.00;94157.66;2556351;23;20005;-82
2023/01/25 02:52:35;;;;;;;203.68;17.80;;;;;;;-0.82;100.00;94162.19;2544734;23;20005;-82
2023/01/25 02:53:36;;;;;;;320.52;22.25;;;;;;;-0.99;100.00;94160.41;2543307;23;20479;-83
2023/01/25 02:54:38;;;;;;;181.38;17.50;;;;;;;-1.08;100.00;94155.19;2556066;23;20031;-83
2023/01/25 02:55:39;;;;;;;228.00;19.60;;;;;;;-1.08;100.00;94152.59;2543528;23;20013;-81
2023/01/25 02:56:42;;;;;;;254.82;18.90;;;;;;;-1.07;100.00;94150.72;2556407;23;20005;-82
2023/01/25 02:57:43;;;;;;;248.32;19.90;;;;;;;-1.08;100.00;94152.59;2556449;23;20359;-82
2023/01/25 02:58:45;;;;;;;231.45;18.77;;;;;;;-1.06;100.00;94153.03;2544527;23;20052;-81
2023/01/25 02:59:46;;;;;;;388.90;21.08;;;;;;;-1.04;100.00;94150.09;2543901;23;20474;-82
2023/01/25 03:00:47;;;;;;;362.70;23.65;;;;;;;-1.16;100.00;94148.13;2555650;23;20016;-84
2023/01/25 03:01:48;;;;;;;228.93;19.17;;;;;;;-1.18;100.00;94149.56;2581117;23;20027;-83
2023/01/25 03:02:49;;;;;;;306.88;19.38;;;;;;;-1.14;100.00;94145.97;2543904;23;20028;-80
2023/01/25 03:03:51;;;;;;;210.40;17.85;;;;;;;-1.06;100.00;94147.00;2556352;23;20508;-82
2023/01/25 03:04:54;;;;;;;195.93;18.50;;;;;;;-1.11;100.00;94145.34;2556234;23;20016;-82
2023/01/25 03:05:55;;;;;;;207.50;17.08;;;;;;;-0.99;100.00;94136.78;2545184;23;20015;-81
2023/01/25 03:06:58;;;;;;;365.30;21.08;;;;;;;-1.04;100.00;94139.59;2568949;23;20031;-83
2023/01/25 03:07:59;;;;;;;405.90;22.25;;;;;;;-1.02;100.00;94145.28;2556597;23;20084;-82
2023/01/25 03:09:02;;;;;;;336.75;20.70;;;;;;;-0.99;100.00;94142.03;2543343;23;20005;-82
2023/01/25 03:10:03;;;;;;;258.58;17.90;;;;;;;-0.81;100.00;94140.09;2543546;23;20462;-81
2023/01/25 03:11:05;;;;;;;215.25;17.02;;;;;;;-1.00;100.00;94137.88;2554990;23;20099;-83
2023/01/25 03:12:09;;;;;;;223.00;18.23;;;;;;;-1.06;100.00;94145.16;2570296;22;20394;-84
2023/01/25 03:13:10;;;;;;;464.60;22.92;;;;;;;-1.14;100.00;94140.75;2568416;23;20009;-82
2023/01/25 03:14:11;;;;;;;266.67;19.17;;;;;;;-1.06;100.00;94144.38;2568658;23;20023;-82
2023/01/25 03:15:12;;;;;;;423.50;22.83;;;;;;;-1.16;100.00;94142.88;2555472;23;20395;-82
2023/01/25 03:16:13;;;;;;;308.55;18.23;;;;;;;-1.14;100.00;94140.75;2556058;23;20020;-83
2023/01/25 03:17:14;;;;;;;338.92;21.48;;;;;;;-1.13;100.00;94133.63;2556919;23;20040;-84
2023/01/25 03:18:15;;;;;;;289.08;19.02;;;;;;;-1.11;100.00;94132.22;2545225;23;20028;-82
2023/01/25 03:19:16;;;;;;;294.58;19.73;;;;;;;-1.12;100.00;94133.31;2556109;23;20009;-82
2023/01/25 03:20:17;;;;;;;249.90;17.88;;;;;;;-1.16;100.00;94135.03;2556496;23;20257;-83
2023/01/25 03:21:21;;;;;;;299.60;20.08;;;;;;;-1.12;100.00;94137.78;2555787;23;20011;-82
2023/01/25 03:22:22;;;;;;;224.52;19.48;;;;;;;-1.12;100.00;94132.53;2570000;23;20064;-83
2023/01/25 03:23:23;;;;;;;187.57;18.08;;;;;;;-1.15;100.00;94130.53;2581646;22;20059;-81
2023/01/25 03:24:24;;;;;;;271.92;20.35;;;;;;;-1.20;100.00;94135.97;2582051;23;20019;-82
2023/01/25 03:25:25;;;;;;;315.40;20.58;;;;;;;-1.23;100.00;94128.72;2557674;23;20005;-82
2023/01/25 03:26:28;;;;;;;424.20;24.30;;;;;;;-1.18;100.00;94133.81;2557542;23;20023;-84
2023/01/25 03:27:29;;;;;;;434.77;22.35;;;;;;;-0.99;100.00;94123.69;2545615;23;20006;-83
2023/01/25 03:28:33;;;;;;;262.52;19.00;;;;;;;-1.04;100.00;94139.59;2544936;23;20086;-83
2023/01/25 03:29:35;;;;;;;334.58;19.63;;;;;;;-1.14;100.00;94132.88;2558460;23;20432;-83
2023/01/25 03:30:36;;;;;;;284.70;22.83;;;;;;;-1.16;100.00;94129.78;2560021;23;20084;-84
2023/01/25 03:31:38;;;;;;;344.55;19.60;;;;;;;-1.16;100.00;94131.63;2545727;23;20006;-82
2023/01/25 03:32:39;;;;;;;248.52;18.38;;;;;;;-1.13;100.00;94121.28;2557642;23;20040;-82
2023/01/25 03:33:42;;;;;;;302.10;20.55;;;;;;;-1.17;100.00;94123.00;2544953;23;20013;-81
2023/01/25 03:34:43;;;;;;;132.27;16.48;;;;;;;-1.12;100.00;94122.03;2546228;23;20017;-84
2023/01/25 03:35:50;;;;;;;254.88;19.58;;;;;;;-1.18;100.00;94125.94;2545485;23;20045;-81
2023/01/25 03:36:51;;;;;;;226.35;18.08;;;;;;;-1.16;100.00;94114.03;2547518;23;20002;-81
2023/01/25 03:37:52;;;;;;;221.60;18.10;;;;;;;-1.12;100.00;94116.81;2545691;23;20002;-83
2023/01/25 03:38:53;;;;;;;325.83;20.58;;;;;;;-1.00;100.00;94124.00;2570496;22;20107;-84
2023/01/25 03:39:54;;;;;;;229.05;19.77;;;;;;;-0.90;100.00;94119.13;2572228;23;20004;-83
2023/01/25 03:40:55;;;;;;;377.83;21.77;;;;;;;-1.03;100.00;94133.25;2544726;23;20016;-82
2023/01/25 03:41:56;;;;;;;326.73;22.23;;;;;;;-0.90;100.00;94124.38;2558297;23;20032;-83
2023/01/25 03:42:57;;;;;;;345.27;21.52;;;;;;;-0.92;100.00;94118.72;2570217;22;19996;-83
2023/01/25 03:43:58;;;;;;;293.42;18.77;;;;;;;-1.02;100.00;94125.06;2569836;23;20439;-82
2023/01/25 03:44:59;;;;;;;213.50;17.33;;;;;;;-1.00;100.00;94119.53;2557641;23;20460;-82
2023/01/25 03:46:00;;;;;;;308.60;21.02;;;;;;;-1.02;100.00;94127.69;2569120;23;20004;-82
2023/01/25 03:47:02;;;;;;;199.38;18.65;;;;;;;-1.03;100.00;94125.41;2557678;23;20021;-82
2023/01/25 03:48:03;;;;;;;267.38;19.45;;;;;;;-1.11;100.00;94121.72;2545624;23;20447;-83
2023/01/25 03:49:05;;;;;;;243.38;18.88;;;;;;;-1.07;100.00;94114.75;2556993;23;20032;-80
2023/01/25 03:50:06;;;;;;;122.85;16.05;;;;;;;-1.07;100.00;94117.38;2556910;23;20005;-83
2023/01/25 03:51:08;;;;;;;274.98;22.23;;;;;;;-1.13;100.00;94115.28;2555905;23;20020;-82
2023/01/25 03:52:09;;;;;;;257.85;19.75;;;;;;;-1.20;100.00;94122.84;2544560;23;20005;-83
2023/01/25 03:53:19;;;;;;;341.50;20.20;;;;;;;-1.20;100.00;94120.22;2545530;23;20002;-81
2023/01/25 03:54:20;;;;;;;329.45;21.00;;;;;;;-1.19;100.00;94117.28;2549489;23;20005;-82
2023/01/25 03:55:21;;;;;;;208.10;19.67;;;;;;;-1.19;100.00;94117.28;2544531;23;20040;-82
2023/01/25 03:56:21;;;;;;;227.63;19.75;;;;;;;-1.14;100.00;94108.47;2557732;23;20068;-83
2023/01/25 03:57:22;;;;;;;407.05;22.10;;;;;;;-1.22;100.00;94106.69;2557485;23;20048;-83
2023/01/25 03:58:24;;;;;;;339.95;20.33;;;;;;;-1.25;100.00;94112.56;2557045;23;20012;-81
2023/01/25 03:59:25;;;;;;;407.85;22.50;;;;;;;-1.20;100.00;94120.22;2557355;23;20005;-83
2023/01/25 04:00:26;;;;;;;327.52;19.13;;;;;;;-1.10;100.00;94114.63;2545577;23;20002;-83
2023/01/25 04:01:27;;;;;;;238.60;18.60;;;;;;;-1.12;100.00;94107.06;2557370;23;20099;-82
2023/01/25 04:02:28;;;;;;;274.38;20.35;;;;;;;-1.21;100.00;94101.09;2570943;22;20008;-84
2023/01/25 04:03:29;;;;;;;507.33;25.17;;;;;;;-1.31;100.00;94109.34;2570608;23;20032;-80
2023/01/25 04:04:30;;;;;;;316.75;21.00;;;;;;;-1.11;100.00;94102.59;2546021;23;20020;-83
2023/01/25 04:05:31;;;;;;;287.63;19.70;;;;;;;-1.14;100.00;94111.88;2546038;23;20017;-83
2023/01/25 04:06:32;;;;;;;425.10;24.05;;;;;;;-1.09;100.00;94109.06;2545836;23;20056;-81
2023/01/25 04:07:36;;;;;;;447.48;23.35;;;;;;;-1.10;100.00;94106.75;2570090;23;20011;-82
2023/01/25 04:08:37;;;;;;;332.60;20.60;;;;;;;-1.10;100.00;94107.53;2546270;23;20009;-80
2023/01/25 04:09:38;;;;;;;229.02;18.60;;;;;;;-1.13;100.00;94104.78;2557986;23;20462;-83
2023/01/25 04:10:39;;;;;;;230.20;18.20;;;;;;;-1.15;100.00;94102.44;2558050;23;20008;-83
2023/01/25 04:11:40;;;;;;;199.70;17.33;;;;;;;-1.10;100.00;94098.88;2545109;23;20001;-82
2023/01/25 04:12:41;;;;;;;306.55;22.73;;;;;;;-1.08;100.00;94101.97;2557347;23;20084;-82
2023/01/25 04:13:42;;;;;;;405.58;21.75;;;;;;;-0.81;100.00;94100.72;2558208;23;20016;-81
2023/01/25 04:14:43;;;;;;;214.63;18.75;;;;;;;-0.99;100.00;94102.69;2557731;23;20258;-81
2023/01/25 04:15:45;;;;;;;206.73;19.20;;;;;;;-1.08;100.00;94101.97;2545972;23;20006;-82
2023/01/25 04:16:46;;;;;;;309.88;19.98;;;;;;;-1.10;100.00;94104.91;2546489;23;20017;-82
2023/01/25 04:17:47;;;;;;;351.83;20.75;;;;;;;-1.13;100.00;94097.69;2545792;23;20642;-84
2023/01/25 04:18:51;;;;;;;412.48;23.35;;;;;;;-1.08;100.00;94100.09;2559183;23;20332;-83
2023/01/25 04:19:51;;;;;;;292.27;20.05;;;;;;;-0.93;100.00;94098.00;2570368;23;20473;-82
2023/01/25 04:20:54;;;;;;;267.23;18.95;;;;;;;-1.07;100.00;94093.00;2559197;23;20001;-83
2023/01/25 04:21:55;;;;;;;328.90;19.38;;;;;;;-1.09;100.00;94098.56;2571086;23;20008;-82
2023/01/25 04:22:56;;;;;;;359.00;21.75;;;;;;;-1.01;100.00;94094.34;2570954;23;20135;-82
2023/01/25 04:23:57;;;;;;;432.08;24.58;;;;;;;-1.15;100.00;94091.97;2569987;23;20015;-82
2023/01/25 04:24:58;;;;;;;329.48;19.88;;;;;;;-1.12;100.00;94088.72;2558455;23;20005;-83
2023/01/25 04:26:05;;;;;;;290.95;18.92;;;;;;;-1.15;100.00;94099.06;2546084;23;20001;-83
2023/01/25 04:27:07;;;;;;;166.93;17.73;;;;;;;-1.15;100.00;94099.06;2571497;23;20061;-82
2023/01/25 04:28:10;;;;;;;244.02;18.13;;;;;;;-1.12;100.00;94095.81;2558559;23;20013;-83
2023/01/25 04:29:11;;;;;;;301.13;20.48;;;;;;;-1.16;100.00;94100.16;2545986;23;20005;-83
2023/01/25 04:30:12;;;;;;;272.40;20.30;;;;;;;-1.15;100.00;94102.44;2557889;23;20009;-83
2023/01/25 04:31:13;;;;;;;346.75;20.60;;;;;;;-1.10;100.00;94107.53;2557244;23;20005;-83
2023/01/25 04:32:14;;;;;;;265.67;17.98;;;;;;;-1.08;100.00;94105.34;2557282;23;20415;-82
2023/01/25 04:33:16;;;;;;;271.67;19.70;;;;;;;-1.13;100.00;94099.53;2558844;23;20004;-84
2023/01/25 04:34:18;;;;;;;257.50;18.73;;;;;;;-1.11;100.00;94095.50;2566083;23;20005;-83
2023/01/25 04:35:19;;;;;;;342.83;21.02;;;;;;;-1.08;100.00;94092.25;2584235;22;20075;-81
2023/01/25 04:36:20;;;;;;;389.73;20.95;;;;;;;-1.03;100.00;94093.91;2570619;23;20004;-83
2023/01/25 04:37:21;;;;;;;263.27;20.92;;;;;;;-0.98;100.00;94087.72;2558668;23;20012;-83
2023/01/25 04:38:22;;;;;;;256.40;18.00;;;;;;;-1.10;100.00;94088.38;2558480;23;20005;-81
2023/01/25 04:39:23;;;;;;;538.55;24.58;;;;;;;-1.09;100.00;94085.47;2572513;23;20020;-83
2023/01/25 04:40:24;;;;;;;325.63;20.15;;;;;;;-1.12;100.00;94087.94;2571302;23;20036;-82
2023/01/25 04:41:28;;;;;;;218.55;20.20;;;;;;;-1.21;100.00;94088.00;2545654;23;20073;-80
2023/01/25 04:42:29;;;;;;;287.55;19.90;;;;;;;-1.10;100.00;94088.38;2559844;23;20020;-82
2023/01/25 04:43:31;;;;;;;342.60;21.30;;;;;;;-1.11;100.00;94077.13;2570563;23;20008;-83
2023/01/25 04:44:32;;;;;;;263.20;21.75;;;;;;;-1.12;100.00;94090.56;2571448;23;20019;-81
2023/01/25 04:45:35;;;;;;;441.25;25.30;;;;;;;-1.20;100.00;94084.28;2583098;23;20015;-82
2023/01/25 04:46:36;;;;;;;356.15;24.05;;;;;;;-1.12;100.00;94087.94;2571143;23;20020;-83